createdAt,value
2023-05-10T00:01:48.223Z,41.71
2023-05-10T00:04:16.288Z,41.71
2023-05-10T00:06:44.237Z,41.79
2023-05-10T00:09:12.161Z,41.70
2023-05-10T00:11:41.502Z,42.12
2023-05-10T00:14:09.403Z,42.09
2023-05-10T00:16:37.470Z,42.50
2023-05-10T00:19:05.528Z,42.43
2023-05-10T00:21:34.682Z,43.11
2023-05-10T00:24:02.706Z,43.63
2023-05-10T00:26:30.625Z,43.53
2023-05-10T00:28:59.907Z,43.57
2023-05-10T00:31:27.954Z,43.53
2023-05-10T00:33:55.895Z,43.48
2023-05-10T00:36:24.016Z,43.50
2023-05-10T00:38:51.919Z,43.75
2023-05-10T00:41:19.870Z,43.89
2023-05-10T00:43:47.752Z,43.90
2023-05-10T00:46:17.882Z,44.26
2023-05-10T00:48:46.353Z,44.54
2023-05-10T00:51:14.743Z,44.50
2023-05-10T00:53:42.907Z,44.58
2023-05-10T00:56:11.539Z,44.68
2023-05-10T00:58:39.496Z,44.54
2023-05-10T01:01:07.959Z,44.93
2023-05-10T01:03:37.321Z,44.77
2023-05-10T01:06:05.627Z,45.08
2023-05-10T01:08:33.666Z,44.89
2023-05-10T01:11:01.676Z,45.17
2023-05-10T01:13:34.085Z,45.22
2023-05-10T01:16:03.508Z,45.48
2023-05-10T01:18:32.312Z,45.37
2023-05-10T01:21:08.813Z,45.33
2023-05-10T01:24:03.450Z,45.23
2023-05-10T01:26:47.341Z,45.75
2023-05-10T01:29:28.446Z,45.81
2023-05-10T01:32:24.590Z,45.78
2023-05-10T01:34:58.488Z,46.00
2023-05-10T01:37:34.049Z,45.94
2023-05-10T01:40:08.101Z,46.02
2023-05-10T01:42:41.463Z,46.25
2023-05-10T01:45:14.320Z,46.41
2023-05-10T01:47:45.417Z,46.45
2023-05-10T01:50:18.216Z,46.36
2023-05-10T01:52:51.555Z,46.38
2023-05-10T01:55:22.640Z,46.58
2023-05-10T01:57:53.676Z,46.39
2023-05-10T02:00:22.377Z,46.52
2023-05-10T02:02:52.057Z,46.59
2023-05-10T02:05:20.597Z,46.50
2023-05-10T02:07:49.273Z,46.70
2023-05-10T02:10:18.293Z,46.66
2023-05-10T02:12:48.572Z,46.75
2023-05-10T02:15:21.117Z,46.71
2023-05-10T02:17:49.449Z,46.75
2023-05-10T02:20:19.570Z,46.89
2023-05-10T02:22:47.932Z,46.98
2023-05-10T02:25:16.653Z,47.03
2023-05-10T02:27:45.533Z,47.20
2023-05-10T02:30:14.107Z,47.20
2023-05-10T02:32:42.499Z,47.29
2023-05-10T02:35:11.183Z,47.46
2023-05-10T02:37:40.902Z,47.24
2023-05-10T02:40:10.097Z,47.28
2023-05-10T02:42:39.699Z,47.27
2023-05-10T02:45:10.791Z,47.28
2023-05-10T02:47:38.701Z,47.47
2023-05-10T02:50:07.584Z,47.48
2023-05-10T02:52:43.842Z,48.04
2023-05-10T02:55:14.898Z,48.27
2023-05-10T02:57:48.602Z,48.34
2023-05-10T03:00:17.076Z,48.41
2023-05-10T03:02:45.286Z,48.01
2023-05-10T03:05:13.243Z,48.22
2023-05-10T03:07:41.152Z,48.54
2023-05-10T03:10:11.520Z,48.60
2023-05-10T03:12:55.221Z,48.86
2023-05-10T03:15:30.743Z,48.78
2023-05-10T03:18:03.781Z,48.54
2023-05-10T03:20:35.526Z,48.46
2023-05-10T03:23:07.184Z,48.87
2023-05-10T03:25:36.661Z,48.54
2023-05-10T03:28:06.089Z,48.88
2023-05-10T03:30:34.319Z,49.05
2023-05-10T03:33:06.907Z,49.21
2023-05-10T03:35:34.877Z,50.27
2023-05-10T03:38:02.787Z,49.69
2023-05-10T03:40:32.797Z,51.10
2023-05-10T03:43:02.120Z,49.93
2023-05-10T03:45:30.058Z,49.86
2023-05-10T03:47:58.002Z,50.01
2023-05-10T03:50:26.104Z,49.95
2023-05-10T03:52:54.865Z,49.88
2023-05-10T03:55:23.485Z,49.57
2023-05-10T03:57:51.597Z,49.69
2023-05-10T04:00:21.475Z,49.71
2023-05-10T04:02:49.468Z,49.80
2023-05-10T04:05:17.643Z,49.61
2023-05-10T04:07:45.938Z,49.76
2023-05-10T04:10:14.278Z,49.77
2023-05-10T04:12:42.324Z,49.59
2023-05-10T04:15:11.133Z,50.19
2023-05-10T04:17:40.734Z,50.07
2023-05-10T04:20:09.691Z,49.55
2023-05-10T04:22:37.582Z,49.79
2023-05-10T04:25:06.420Z,49.91
2023-05-10T04:27:34.416Z,49.76
2023-05-10T04:30:02.350Z,49.67
2023-05-10T04:32:30.349Z,49.63
2023-05-10T04:34:59.660Z,49.53
2023-05-10T04:37:27.569Z,49.67
2023-05-10T04:39:55.437Z,50.06
2023-05-10T04:42:23.344Z,49.85
2023-05-10T04:44:51.452Z,49.85
2023-05-10T04:47:19.341Z,50.02
2023-05-10T04:49:47.277Z,49.61
2023-05-10T04:52:18.463Z,49.70
2023-05-10T04:54:46.447Z,51.02
2023-05-10T04:57:14.357Z,49.84
2023-05-10T04:59:42.304Z,49.96
2023-05-10T05:02:10.291Z,50.14
2023-05-10T05:04:38.249Z,51.20
2023-05-10T05:07:06.195Z,50.82
2023-05-10T05:09:35.567Z,50.19
2023-05-10T05:12:03.560Z,51.83
2023-05-10T05:14:31.469Z,50.13
2023-05-10T05:16:59.351Z,50.47
2023-05-10T05:19:27.246Z,51.20
2023-05-10T05:21:55.158Z,51.11
2023-05-10T05:24:23.084Z,50.60
2023-05-10T05:26:52.367Z,51.26
2023-05-10T05:29:20.310Z,51.52
2023-05-10T05:31:48.293Z,51.02
2023-05-10T05:34:16.177Z,52.54
2023-05-10T05:36:44.091Z,52.52
2023-05-10T05:39:11.976Z,51.88
2023-05-10T05:41:39.896Z,50.77
2023-05-10T05:44:09.224Z,50.79
2023-05-10T05:46:37.152Z,51.50
2023-05-10T05:49:05.152Z,52.04
2023-05-10T05:51:33.284Z,52.32
2023-05-10T05:54:01.244Z,51.02
2023-05-10T05:56:29.139Z,53.14
2023-05-10T05:58:57.050Z,52.34
2023-05-10T06:01:26.367Z,51.28
2023-05-10T06:03:54.405Z,51.08
2023-05-10T06:06:22.429Z,52.42
2023-05-10T06:08:50.434Z,51.42
2023-05-10T06:11:18.341Z,52.03
2023-05-10T06:13:46.569Z,52.95
2023-05-10T06:16:14.711Z,53.44
2023-05-10T06:18:44.022Z,53.45
2023-05-10T06:21:12.051Z,53.52
2023-05-10T06:23:39.930Z,53.00
2023-05-10T06:26:08.000Z,51.85
2023-05-10T06:28:36.012Z,52.10
2023-05-10T06:31:04.005Z,52.15
2023-05-10T06:33:32.165Z,52.34
2023-05-10T06:36:01.777Z,53.02
2023-05-10T06:38:29.668Z,53.82
2023-05-10T06:40:58.141Z,52.21
2023-05-10T06:43:27.436Z,51.86
2023-05-10T06:45:55.357Z,52.40
2023-05-10T06:48:23.321Z,52.14
2023-05-10T06:50:51.307Z,51.94
2023-05-10T06:53:20.664Z,52.77
2023-05-10T06:55:48.634Z,53.03
2023-05-10T06:58:16.960Z,53.69
2023-05-10T07:00:46.365Z,52.57
2023-05-10T07:03:14.385Z,53.04
2023-05-10T07:05:42.675Z,52.40
2023-05-10T07:08:10.815Z,51.65
2023-05-10T07:10:40.279Z,51.89
2023-05-10T07:13:08.222Z,52.51
2023-05-10T07:15:36.225Z,51.47
2023-05-10T07:18:05.609Z,52.85
2023-05-10T07:20:33.652Z,53.64
2023-05-10T07:23:03.237Z,53.86
2023-05-10T07:25:31.136Z,54.80
2023-05-10T07:28:00.433Z,55.15
2023-05-10T07:30:28.482Z,55.97
2023-05-10T07:32:56.466Z,56.25
2023-05-10T07:35:24.396Z,57.95
2023-05-10T07:37:54.801Z,56.41
2023-05-10T07:40:23.031Z,57.82
2023-05-10T07:42:50.974Z,62.34
2023-05-10T07:45:20.351Z,63.07
2023-05-10T07:47:48.336Z,64.74
2023-05-10T07:50:16.471Z,65.99
2023-05-10T07:52:44.595Z,66.22
2023-05-10T07:55:12.537Z,65.43
2023-05-10T07:57:40.528Z,66.46
2023-05-10T08:00:09.641Z,66.15
2023-05-10T08:02:39.112Z,62.99
2023-05-10T08:05:07.965Z,62.10
2023-05-10T08:07:35.913Z,63.23
2023-05-10T08:10:03.911Z,62.15
2023-05-10T08:12:32.485Z,61.99
2023-05-10T08:15:00.405Z,62.22
2023-05-10T08:17:28.491Z,61.67
2023-05-10T08:19:57.922Z,65.23
2023-05-10T08:22:25.865Z,62.64
2023-05-10T08:24:53.812Z,68.61
2023-05-10T08:27:21.743Z,67.75
2023-05-10T08:29:50.600Z,68.86
2023-05-10T08:32:18.750Z,69.83
2023-05-10T08:34:46.716Z,70.51
2023-05-10T08:37:16.034Z,70.26
2023-05-10T08:39:44.031Z,68.99
2023-05-10T08:42:12.400Z,72.36
2023-05-10T08:44:40.718Z,73.11
2023-05-10T08:47:09.243Z,73.72
2023-05-10T08:49:37.882Z,73.74
2023-05-10T08:52:06.621Z,72.17
2023-05-10T08:54:36.594Z,72.15
2023-05-10T08:57:04.664Z,74.79
2023-05-10T08:59:32.992Z,76.08
2023-05-10T09:02:01.309Z,76.89
2023-05-10T09:04:30.191Z,78.27
2023-05-10T09:06:58.352Z,79.04
2023-05-10T09:09:26.464Z,77.82
2023-05-10T09:11:56.484Z,78.80
2023-05-10T09:14:25.945Z,76.53
2023-05-10T09:16:55.274Z,77.90
2023-05-10T09:19:23.213Z,79.52
2023-05-10T09:21:51.602Z,75.56
2023-05-10T09:24:19.559Z,78.79
2023-05-10T09:26:50.841Z,79.15
2023-05-10T09:29:20.292Z,80.30
2023-05-10T09:31:52.124Z,80.54
2023-05-10T09:34:21.318Z,80.52
2023-05-10T09:36:53.915Z,80.38
2023-05-10T09:39:22.473Z,81.96
2023-05-10T09:41:50.490Z,81.82
2023-05-10T09:44:22.867Z,80.08
2023-05-10T09:46:53.824Z,80.42
2023-05-10T09:49:21.892Z,79.53
2023-05-10T09:51:49.810Z,79.83
2023-05-10T09:54:18.556Z,78.86
2023-05-10T09:56:46.474Z,80.47
2023-05-10T09:59:14.696Z,80.88
2023-05-10T10:01:44.185Z,81.68
2023-05-10T10:04:12.601Z,81.90
2023-05-10T10:06:41.196Z,82.33
2023-05-10T10:09:09.385Z,82.30
2023-05-10T10:11:37.903Z,82.16
2023-05-10T10:14:06.435Z,83.08
2023-05-10T10:16:34.880Z,83.25
2023-05-10T10:19:04.327Z,83.29
2023-05-10T10:21:32.470Z,81.31
2023-05-10T10:24:00.482Z,81.63
2023-05-10T10:26:28.613Z,82.46
2023-05-10T10:29:04.031Z,82.51
2023-05-10T10:31:39.938Z,80.45
2023-05-10T10:34:10.988Z,82.08
2023-05-10T10:36:46.756Z,83.56
2023-05-10T10:39:14.932Z,82.79
2023-05-10T10:41:51.657Z,82.23
2023-05-10T10:44:36.531Z,83.69
2023-05-10T10:47:12.372Z,83.35
2023-05-10T10:49:46.606Z,80.44
2023-05-10T10:52:27.814Z,80.91
2023-05-10T10:55:00.893Z,81.66
2023-05-10T10:57:31.105Z,82.01
2023-05-10T11:00:21.875Z,81.95
2023-05-10T11:02:51.185Z,83.24
2023-05-10T11:05:40.506Z,81.54
2023-05-10T11:08:20.026Z,82.59
2023-05-10T11:11:05.559Z,82.69
2023-05-10T11:13:35.016Z,82.30
2023-05-10T11:16:13.525Z,81.24
2023-05-10T11:18:41.590Z,81.23
2023-05-10T11:21:12.689Z,81.37
2023-05-10T11:23:57.123Z,81.67
2023-05-10T11:26:26.565Z,81.93
2023-05-10T11:28:57.107Z,81.79
2023-05-10T11:31:27.648Z,81.75
2023-05-10T11:33:57.705Z,81.97
2023-05-10T11:36:28.878Z,82.21
2023-05-10T11:38:57.686Z,82.21
2023-05-10T11:41:27.048Z,81.33
2023-05-10T11:43:55.949Z,81.73
2023-05-10T11:46:25.391Z,82.50
2023-05-10T11:48:54.903Z,80.19
2023-05-10T11:51:23.348Z,80.10
2023-05-10T11:53:54.892Z,76.74
2023-05-10T11:56:22.914Z,79.65
2023-05-10T11:58:55.369Z,80.60
2023-05-10T12:01:24.038Z,78.60
2023-05-10T12:03:52.946Z,76.49
2023-05-10T12:06:21.695Z,75.48
2023-05-10T12:08:53.494Z,70.04
2023-05-10T12:11:27.042Z,68.34
2023-05-10T12:13:55.749Z,70.15
2023-05-10T12:16:24.927Z,73.22
2023-05-10T12:18:53.417Z,70.87
2023-05-10T12:21:22.401Z,75.52
2023-05-10T12:23:52.521Z,72.72
2023-05-10T12:26:22.320Z,75.42
2023-05-10T12:28:50.245Z,78.02
2023-05-10T12:31:18.203Z,76.26
2023-05-10T12:33:47.357Z,77.14
2023-05-10T12:36:16.815Z,76.72
2023-05-10T12:38:48.809Z,75.60
2023-05-10T12:41:18.152Z,76.01
2023-05-10T12:43:47.636Z,68.52
2023-05-10T12:46:16.994Z,72.09
2023-05-10T12:48:46.435Z,70.91
2023-05-10T12:51:16.702Z,72.59
2023-05-10T12:53:49.384Z,75.20
2023-05-10T12:56:17.585Z,76.86
2023-05-10T12:58:49.038Z,77.31
2023-05-10T13:01:18.626Z,79.23
2023-05-10T13:03:49.307Z,78.81
2023-05-10T13:06:17.309Z,79.47
2023-05-10T13:08:45.210Z,78.97
2023-05-10T13:11:17.536Z,79.84
2023-05-10T13:13:45.711Z,79.28
2023-05-10T13:16:13.721Z,80.17
2023-05-10T13:18:43.204Z,79.06
2023-05-10T13:21:12.264Z,79.16
2023-05-10T13:23:40.180Z,76.94
2023-05-10T13:26:08.093Z,71.48
2023-05-10T13:28:36.019Z,75.47
2023-05-10T13:31:03.973Z,71.22
2023-05-10T13:33:31.923Z,74.67
2023-05-10T13:36:01.290Z,70.95
2023-05-10T13:38:29.303Z,73.55
2023-05-10T13:40:57.296Z,74.42
2023-05-10T13:43:26.065Z,75.15
2023-05-10T13:45:54.032Z,74.10
2023-05-10T13:48:22.142Z,68.60
2023-05-10T13:50:50.069Z,67.25
2023-05-10T13:53:19.429Z,69.63
2023-05-10T13:55:47.312Z,68.19
2023-05-10T13:58:15.279Z,68.87
2023-05-10T14:00:43.209Z,73.50
2023-05-10T14:03:12.112Z,74.02
2023-05-10T14:05:40.936Z,74.00
2023-05-10T14:08:10.439Z,74.24
2023-05-10T14:10:40.440Z,73.97
2023-05-10T14:13:08.922Z,71.49
2023-05-10T14:15:36.877Z,71.22
2023-05-10T14:18:05.107Z,72.46
2023-05-10T14:20:34.669Z,73.10
2023-05-10T14:23:02.612Z,74.50
2023-05-10T14:25:30.554Z,75.67
2023-05-10T14:27:59.823Z,75.34
2023-05-10T14:30:28.073Z,75.83
2023-05-10T14:32:59.520Z,76.39
2023-05-10T14:35:27.524Z,75.57
2023-05-10T14:37:55.503Z,75.27
2023-05-10T14:40:23.828Z,76.45
2023-05-10T14:42:53.906Z,75.58
2023-05-10T14:45:23.530Z,76.25
2023-05-10T14:47:51.763Z,76.58
2023-05-10T14:50:35.190Z,77.37
2023-05-10T14:53:04.314Z,77.67
2023-05-10T14:55:32.269Z,77.85
2023-05-10T14:58:00.305Z,77.68
2023-05-10T15:00:31.570Z,78.46
2023-05-10T15:03:02.457Z,76.99
2023-05-10T15:05:30.888Z,74.44
2023-05-10T15:07:59.307Z,76.28
2023-05-10T15:10:27.228Z,75.92
2023-05-10T15:12:55.104Z,76.34
2023-05-10T15:15:23.086Z,76.58
2023-05-10T15:17:52.427Z,77.39
2023-05-10T15:20:20.409Z,76.66
2023-05-10T15:22:48.411Z,75.59
2023-05-10T15:25:16.929Z,77.25
2023-05-10T15:27:45.564Z,75.28
2023-05-10T15:30:14.305Z,77.15
2023-05-10T15:32:42.246Z,77.84
2023-05-10T15:35:12.168Z,77.57
2023-05-10T15:37:40.222Z,78.04
2023-05-10T15:40:09.548Z,77.16
2023-05-10T15:42:37.458Z,76.32
2023-05-10T15:45:07.103Z,75.56
2023-05-10T15:47:35.226Z,73.64
2023-05-10T15:50:03.670Z,74.64
2023-05-10T15:52:33.116Z,73.67
2023-05-10T15:55:01.058Z,73.46
2023-05-10T15:57:28.954Z,74.05
2023-05-10T15:59:57.908Z,75.75
2023-05-10T16:02:26.140Z,74.56
2023-05-10T16:04:54.089Z,74.46
2023-05-10T16:07:21.998Z,75.54
2023-05-10T16:09:51.367Z,73.48
2023-05-10T16:12:21.792Z,75.80
2023-05-10T16:14:49.751Z,76.25
2023-05-10T16:17:17.840Z,76.19
2023-05-10T16:19:45.825Z,76.89
2023-05-10T16:22:13.728Z,76.08
2023-05-10T16:24:42.467Z,76.18
2023-05-10T16:27:13.252Z,75.23
2023-05-10T16:29:41.177Z,78.43
2023-05-10T16:32:09.098Z,77.34
2023-05-10T16:34:37.024Z,75.64
2023-05-10T16:37:04.959Z,76.98
2023-05-10T16:39:32.907Z,76.20
2023-05-10T16:42:01.180Z,77.70
2023-05-10T16:44:30.614Z,77.38
2023-05-10T16:46:58.876Z,78.40
2023-05-10T16:49:27.648Z,76.47
2023-05-10T16:51:55.587Z,78.56
2023-05-10T16:54:23.588Z,77.98
2023-05-10T16:56:51.826Z,77.12
2023-05-10T16:59:19.800Z,77.38
2023-05-10T17:01:49.254Z,78.44
2023-05-10T17:04:17.807Z,80.27
2023-05-10T17:06:45.774Z,79.52
2023-05-10T17:09:13.880Z,80.10
2023-05-10T17:11:42.004Z,80.32
2023-05-10T17:14:10.313Z,79.48
2023-05-10T17:16:38.316Z,79.24
2023-05-10T17:19:07.834Z,78.63
2023-05-10T17:21:35.768Z,78.85
2023-05-10T17:24:03.687Z,79.25
2023-05-10T17:26:31.717Z,80.36
2023-05-10T17:28:59.900Z,79.59
2023-05-10T17:31:28.276Z,79.60
2023-05-10T17:33:56.260Z,79.15
2023-05-10T17:36:25.570Z,78.93
2023-05-10T17:38:53.555Z,74.68
2023-05-10T17:41:21.773Z,77.60
2023-05-10T17:43:49.675Z,76.41
2023-05-10T17:46:17.725Z,73.42
2023-05-10T17:48:45.850Z,74.17
2023-05-10T17:51:13.746Z,75.10
2023-05-10T17:53:43.140Z,72.61
2023-05-10T17:56:11.331Z,73.58
2023-05-10T17:58:39.254Z,74.41
2023-05-10T18:01:07.346Z,73.88
2023-05-10T18:03:36.046Z,76.23
2023-05-10T18:06:04.375Z,77.42
2023-05-10T18:08:33.116Z,76.51
2023-05-10T18:11:02.375Z,77.58
2023-05-10T18:13:30.309Z,76.14
2023-05-10T18:15:58.209Z,74.74
2023-05-10T18:18:26.235Z,75.51
2023-05-10T18:20:56.808Z,73.43
2023-05-10T18:23:24.866Z,72.98
2023-05-10T18:25:52.894Z,71.55
2023-05-10T18:28:22.276Z,75.71
2023-05-10T18:30:50.167Z,71.44
2023-05-10T18:33:18.085Z,70.40
2023-05-10T18:35:46.250Z,70.63
2023-05-10T18:38:14.242Z,73.42
2023-05-10T18:40:42.803Z,70.98
2023-05-10T18:43:10.786Z,70.80
2023-05-10T18:45:40.187Z,70.05
2023-05-10T18:48:08.377Z,73.03
2023-05-10T18:50:36.377Z,71.78
2023-05-10T18:53:04.596Z,71.10
2023-05-10T18:55:32.504Z,69.52
2023-05-10T18:58:00.489Z,68.83
2023-05-10T19:00:28.523Z,68.50
2023-05-10T19:02:57.952Z,68.15
2023-05-10T19:05:29.952Z,67.78
2023-05-10T19:07:58.009Z,67.62
2023-05-10T19:10:25.952Z,67.44
2023-05-10T19:12:53.875Z,67.16
2023-05-10T19:15:22.256Z,67.09
2023-05-10T19:17:50.703Z,67.05
2023-05-10T19:20:20.252Z,66.94
2023-05-10T19:23:02.215Z,66.92
2023-05-10T19:25:36.070Z,67.07
2023-05-10T19:28:04.194Z,66.88
2023-05-10T19:30:32.242Z,66.80
2023-05-10T19:33:00.172Z,66.94
2023-05-10T19:35:29.631Z,67.11
2023-05-10T19:37:57.512Z,67.08
2023-05-10T19:40:25.438Z,66.91
2023-05-10T19:42:53.941Z,66.88
2023-05-10T19:45:22.395Z,66.92
2023-05-10T19:47:50.355Z,67.10
2023-05-10T19:50:18.871Z,67.10
2023-05-10T19:52:49.120Z,66.80
2023-05-10T19:55:27.194Z,66.82
2023-05-10T19:57:55.156Z,66.93
2023-05-10T20:00:23.281Z,66.92
2023-05-10T20:02:51.436Z,66.91
2023-05-10T20:05:19.481Z,66.68
2023-05-10T20:07:48.921Z,66.90
2023-05-10T20:10:17.496Z,66.90
2023-05-10T20:12:51.059Z,66.96
2023-05-10T20:15:20.127Z,67.17
2023-05-10T20:17:48.433Z,67.52
2023-05-10T20:20:17.055Z,67.44
2023-05-10T20:22:45.389Z,67.25
2023-05-10T20:25:15.148Z,68.22
2023-05-10T20:27:43.080Z,68.66
2023-05-10T20:30:11.826Z,68.53
2023-05-10T20:32:40.138Z,68.03
2023-05-10T20:35:08.627Z,68.98
2023-05-10T20:37:37.835Z,71.32
2023-05-10T20:40:06.894Z,75.02
2023-05-10T20:42:36.215Z,77.22
2023-05-10T20:45:04.542Z,79.43
2023-05-10T20:47:32.605Z,80.34
2023-05-10T20:50:00.544Z,80.21
2023-05-10T20:52:28.441Z,79.95
2023-05-10T20:54:56.411Z,80.13
2023-05-10T20:57:24.334Z,76.80
2023-05-10T20:59:54.670Z,73.39
2023-05-10T21:02:22.580Z,72.08
2023-05-10T21:04:50.530Z,71.69
2023-05-10T21:07:18.463Z,70.73
2023-05-10T21:09:46.386Z,70.21
2023-05-10T21:12:14.512Z,69.43
2023-05-10T21:14:43.077Z,69.68
2023-05-10T21:17:12.328Z,69.38
2023-05-10T21:19:40.197Z,69.22
2023-05-10T21:22:08.111Z,75.40
2023-05-10T21:24:36.094Z,73.48
2023-05-10T21:27:04.756Z,73.75
2023-05-10T21:29:32.655Z,80.33
2023-05-10T21:32:01.224Z,81.98
2023-05-10T21:34:31.114Z,81.45
2023-05-10T21:36:59.064Z,80.84
2023-05-10T21:39:26.956Z,76.94
2023-05-10T21:41:54.850Z,77.72
2023-05-10T21:44:22.778Z,72.88
2023-05-10T21:46:50.713Z,74.32
2023-05-10T21:49:18.931Z,71.41
2023-05-10T21:51:48.653Z,72.30
2023-05-10T21:54:16.575Z,70.62
2023-05-10T21:56:44.985Z,69.89
2023-05-10T21:59:12.905Z,76.03
2023-05-10T22:01:41.191Z,71.67
2023-05-10T22:04:09.432Z,70.77
2023-05-10T22:06:37.347Z,71.95
2023-05-10T22:09:06.717Z,70.67
2023-05-10T22:11:34.651Z,70.06
2023-05-10T22:14:02.892Z,70.17
2023-05-10T22:16:31.081Z,69.31
2023-05-10T22:18:59.147Z,69.14
2023-05-10T22:21:27.115Z,69.56
2023-05-10T22:23:55.023Z,69.42
2023-05-10T22:26:24.298Z,69.12
2023-05-10T22:28:52.189Z,69.16
2023-05-10T22:31:20.172Z,69.25
2023-05-10T22:33:48.127Z,69.47
2023-05-10T22:36:16.751Z,69.34
2023-05-10T22:38:44.714Z,70.23
2023-05-10T22:41:12.685Z,69.96
2023-05-10T22:43:42.126Z,75.88
2023-05-10T22:46:10.059Z,76.31
2023-05-10T22:48:37.978Z,72.06
2023-05-10T22:51:05.978Z,70.92
2023-05-10T22:53:33.896Z,71.74
2023-05-10T22:56:01.862Z,71.01
2023-05-10T22:58:29.921Z,71.63
2023-05-10T23:00:59.436Z,73.50
2023-05-10T23:03:27.434Z,74.91
2023-05-10T23:05:55.360Z,71.67
2023-05-10T23:08:23.503Z,72.44
2023-05-10T23:10:51.731Z,76.75
2023-05-10T23:13:21.037Z,73.07
2023-05-10T23:15:49.084Z,75.01
2023-05-10T23:18:18.684Z,75.60
2023-05-10T23:20:46.702Z,73.41
2023-05-10T23:23:14.606Z,72.19
2023-05-10T23:25:42.502Z,72.07
2023-05-10T23:28:10.856Z,71.47
2023-05-10T23:30:38.762Z,71.75
2023-05-10T23:33:06.700Z,71.00
2023-05-10T23:35:36.217Z,70.69
2023-05-10T23:38:04.099Z,70.41
2023-05-10T23:40:32.030Z,70.45
2023-05-10T23:42:59.932Z,70.47
2023-05-10T23:45:27.983Z,70.68
2023-05-10T23:47:56.051Z,71.32
2023-05-10T23:50:24.027Z,72.51
2023-05-10T23:52:53.303Z,77.25
2023-05-10T23:55:21.423Z,72.58
2023-05-10T23:57:49.335Z,72.73
